Time;durP1;ratioP1;P1;durP2;ratioP2;P2;SDS_P1;SDS_P2;PMS_P1;PMS_P2;Temp;Humidity;BMP_temperature;BMP_pressure;BME280_temperature;BME280_humidity;BME280_pressure;Samples;Min_cycle;Max_cycle;Signal;HPM_P1;HPM_P2
2023/09/20 00:01:17;;;;;;;;;;;;;;;21.66;55.24;100841.03;4215551;28;20377;-66
2023/09/20 00:03:19;;;;;;;;;;;;;;;21.66;55.12;100843.72;4233670;28;20411;-66
2023/09/20 00:05:22;;;;;;;;;;;;;;;21.64;55.41;100834.97;4233687;28;19924;-66
2023/09/20 00:07:23;;;;;;;;;;;;;;;21.63;55.33;100835.94;4249649;27;19968;-66
2023/09/20 00:09:25;;;;;;;;;;;;;;;21.61;55.46;100832.53;4215637;28;19955;-66
2023/09/20 00:11:26;;;;;;;;;;;;;;;21.61;55.45;100831.69;4233380;28;19978;-66
2023/09/20 00:13:28;;;;;;;;;;;;;;;21.59;55.48;100836.31;4233284;28;19927;-66
2023/09/20 00:15:30;;;;;;;;;;;;;;;21.57;55.30;100824.88;4233415;28;19930;-66
2023/09/20 00:17:34;;;;;;;;;;;;;;;21.57;55.50;100825.75;4233424;28;19924;-66
2023/09/20 00:19:38;;;;;;;;;;;;;;;21.57;55.68;100830.22;4233402;28;20376;-66
2023/09/20 00:21:40;;;;;;;;;;;;;;;21.54;55.55;100823.25;4232959;28;19977;-66
2023/09/20 00:23:42;;;;;;;;;;;;;;;21.52;55.56;100831.44;4233337;28;19931;-66
2023/09/20 00:25:44;;;;;;;;;;;;;;;21.52;55.55;100823.41;4233257;28;20019;-67
2023/09/20 00:27:46;;;;;;;;;;;;;;;21.51;55.73;100835.06;4233026;28;19924;-66
2023/09/20 00:29:47;;;;;;;;;;;;;;;21.50;55.75;100825.34;4233152;28;19924;-66
2023/09/20 00:31:49;;;;;;;;;;;;;;;21.49;55.51;100820.94;4233280;28;19932;-67
2023/09/20 00:33:52;;;;;;;;;;;;;;;21.48;55.73;100819.28;4233063;28;19932;-66
2023/09/20 00:35:53;;;;;;;;;;;;;;;21.47;55.98;100811.34;4233254;28;20343;-66
2023/09/20 00:37:55;;;;;;;;;;;;;;;21.45;55.86;100814.16;4232920;28;19928;-66
2023/09/20 00:39:56;;;;;;;;;;;;;;;21.45;56.12;100808.81;4233143;28;19923;-67
2023/09/20 00:41:58;;;;;;;;;;;;;;;21.44;56.12;100808.94;4232717;28;20345;-66
2023/09/20 00:44:00;;;;;;;;;;;;;;;21.43;56.06;100813.41;4232897;28;19924;-66
2023/09/20 00:46:02;;;;;;;;;;;;;;;21.43;56.01;100813.41;4232777;28;19924;-66
2023/09/20 00:48:05;;;;;;;;;;;;;;;21.41;55.96;100812.72;4232782;28;19931;-66
2023/09/20 00:50:13;;;;;;;;;;;;;;;21.40;56.02;100805.66;4232678;28;20011;-67
2023/09/20 00:52:15;;;;;;;;;;;;;;;21.39;56.22;100807.47;4233048;28;19924;-66
2023/09/20 00:54:17;;;;;;;;;;;;;;;21.39;56.17;100806.63;4232079;28;20006;-66
2023/09/20 00:56:18;;;;;;;;;;;;;;;21.38;56.15;100804.91;4232434;28;19928;-66
2023/09/20 00:58:20;;;;;;;;;;;;;;;21.37;56.21;100795.19;4232794;28;19923;-66
2023/09/20 01:00:29;;;;;;;;;;;;;;;21.37;56.14;100792.50;4232876;28;20390;-66
2023/09/20 01:02:31;;;;;;;;;;;;;;;21.35;56.28;100794.44;4232778;28;19924;-66
2023/09/20 01:04:34;;;;;;;;;;;;;;;21.34;56.37;100796.28;4232785;28;19923;-66
2023/09/20 01:06:36;;;;;;;;;;;;;;;21.34;56.41;100801.63;4232698;28;19946;-66
2023/09/20 01:08:38;;;;;;;;;;;;;;;21.33;56.38;100794.56;4214340;28;19924;-66
2023/09/20 01:10:40;;;;;;;;;;;;;;;21.34;56.47;100798.13;4214132;28;19932;-66
2023/09/20 01:12:43;;;;;;;;;;;;;;;21.32;56.53;100800.06;4232579;28;19974;-66
2023/09/20 01:14:45;;;;;;;;;;;;;;;21.31;56.44;100799.22;4232328;28;19924;-65
2023/09/20 01:16:47;;;;;;;;;;;;;;;21.32;56.15;100797.38;4232379;28;19949;-66
2023/09/20 01:18:48;;;;;;;;;;;;;;;21.31;56.53;100798.34;4232367;28;19977;-66
2023/09/20 01:20:50;;;;;;;;;;;;;;;21.30;56.36;100802.00;4232201;28;19984;-66
2023/09/20 01:22:56;;;;;;;;;;;;;;;21.30;56.36;100800.19;4232606;28;19924;-66
2023/09/20 01:24:58;;;;;;;;;;;;;;;21.29;56.46;100792.28;4232262;28;20022;-66
2023/09/20 01:27:03;;;;;;;;;;;;;;;21.29;56.67;100798.50;4232418;28;19931;-66
2023/09/20 01:29:05;;;;;;;;;;;;;;;21.28;56.56;100788.75;4231530;28;19931;-66
2023/09/20 01:31:07;;;;;;;;;;;;;;;21.29;56.56;100792.28;4232201;28;19923;-66
2023/09/20 01:33:09;;;;;;;;;;;;;;;21.28;56.66;100798.63;4232343;28;19928;-66
2023/09/20 01:35:11;;;;;;;;;;;;;;;21.27;56.44;100795.06;4232114;28;19974;-66
2023/09/20 01:37:13;;;;;;;;;;;;;;;21.27;56.69;100794.25;4232030;28;20014;-66
2023/09/20 01:39:16;;;;;;;;;;;;;;;21.25;56.75;100790.81;4232042;28;20011;-66
2023/09/20 01:41:19;;;;;;;;;;;;;;;21.25;56.71;100780.97;4231840;28;19938;-66
2023/09/20 01:43:22;;;;;;;;;;;;;;;21.23;56.56;100782.94;4232175;28;20006;-66
2023/09/20 01:45:23;;;;;;;;;;;;;;;21.24;56.76;100790.00;4232010;28;20002;-66
2023/09/20 01:47:26;;;;;;;;;;;;;;;21.23;56.45;100785.59;4231926;28;19924;-65
2023/09/20 01:49:28;;;;;;;;;;;;;;;21.22;56.72;100778.56;4231971;28;19928;-65
2023/09/20 01:51:29;;;;;;;;;;;;;;;21.22;56.67;100783.91;4231806;28;20309;-66
2023/09/20 01:53:32;;;;;;;;;;;;;;;21.21;56.87;100775.00;4231926;28;20328;-65
2023/09/20 01:55:37;;;;;;;;;;;;;;;21.20;56.87;100780.47;4231619;28;20387;-66
2023/09/20 01:57:39;;;;;;;;;;;;;;;21.20;56.88;100778.69;4231733;28;19967;-66
2023/09/20 01:59:41;;;;;;;;;;;;;;;21.19;57.07;100776.97;4231897;28;19945;-65
2023/09/20 02:01:42;;;;;;;;;;;;;;;21.18;56.82;100777.06;4231599;28;19931;-65
2023/09/20 02:03:44;;;;;;;;;;;;;;;21.19;56.99;100776.09;4231702;28;20026;-66
2023/09/20 02:05:47;;;;;;;;;;;;;;;21.18;56.84;100769.91;4230869;28;20006;-66
2023/09/20 02:07:50;;;;;;;;;;;;;;;21.18;56.93;100774.41;4231632;28;20301;-66
2023/09/20 02:09:51;;;;;;;;;;;;;;;21.17;57.12;100768.22;4231408;28;20307;-66
2023/09/20 02:11:53;;;;;;;;;;;;;;;21.16;56.96;100763.84;4247240;27;20020;-65
2023/09/20 02:13:55;;;;;;;;;;;;;;;21.16;57.04;100761.16;4231674;28;19924;-65
2023/09/20 02:15:59;;;;;;;;;;;;;;;21.14;56.78;100763.13;4231480;28;19930;-64
2023/09/20 02:18:08;;;;;;;;;;;;;;;21.14;56.99;100755.09;4231249;28;19932;-66
2023/09/20 02:20:19;;;;;;;;;;;;;;;21.14;57.04;100757.78;4231395;28;19931;-66
2023/09/20 02:22:21;;;;;;;;;;;;;;;21.14;57.01;100755.09;4231370;28;19973;-66
2023/09/20 02:24:23;;;;;;;;;;;;;;;21.14;57.18;100752.44;4231100;28;19924;-66
2023/09/20 02:26:24;;;;;;;;;;;;;;;21.12;57.18;100746.34;4231333;28;19958;-65
2023/09/20 02:28:26;;;;;;;;;;;;;;;21.13;57.23;100745.38;4231397;28;19924;-66
2023/09/20 02:30:28;;;;;;;;;;;;;;;21.12;57.21;100740.13;4231412;28;20485;-66
2023/09/20 02:32:31;;;;;;;;;;;;;;;21.10;57.18;100748.28;4231270;28;20383;-65
2023/09/20 02:34:33;;;;;;;;;;;;;;;21.10;57.02;100739.41;4231213;28;19992;-65
2023/09/20 02:36:35;;;;;;;;;;;;;;;21.09;57.05;100741.22;4231225;28;19986;-66
2023/09/20 02:38:37;;;;;;;;;;;;;;;21.10;57.33;100740.25;4231074;28;20365;-65
2023/09/20 02:40:39;;;;;;;;;;;;;;;21.09;57.14;100738.56;4231065;28;19988;-66
2023/09/20 02:42:48;;;;;;;;;;;;;;;21.08;57.52;100736.84;4231026;28;19947;-66
2023/09/20 02:44:51;;;;;;;;;;;;;;;21.08;57.20;100736.84;4230729;28;19928;-66
2023/09/20 02:46:53;;;;;;;;;;;;;;;21.08;57.40;100738.69;4231129;28;19924;-66
2023/09/20 02:48:55;;;;;;;;;;;;;;;21.06;57.17;100738.81;4231100;28;19923;-65
2023/09/20 02:50:59;;;;;;;;;;;;;;;21.06;57.14;100731.63;4230984;28;19924;-66
2023/09/20 02:53:01;;;;;;;;;;;;;;;21.05;57.37;100731.75;4230715;28;20022;-66
2023/09/20 02:55:12;;;;;;;;;;;;;;;21.05;57.16;100737.09;4230687;28;19930;-66
2023/09/20 02:57:13;;;;;;;;;;;;;;;21.04;57.52;100732.72;4230841;28;20411;-66
2023/09/20 02:59:16;;;;;;;;;;;;;;;21.03;57.45;100736.38;4230898;28;19924;-66
2023/09/20 03:01:17;;;;;;;;;;;;;;;21.03;57.36;100734.56;4230695;28;19967;-66
2023/09/20 03:03:19;;;;;;;;;;;;;;;21.03;57.14;100728.34;4230785;28;19924;-65
2023/09/20 03:05:24;;;;;;;;;;;;;;;21.02;57.16;100726.63;4212641;28;19932;-65
2023/09/20 03:07:26;;;;;;;;;;;;;;;21.01;57.53;100709.75;4230606;28;19923;-66
2023/09/20 03:09:32;;;;;;;;;;;;;;;21.02;57.53;100719.50;4230767;28;20019;-66
2023/09/20 03:11:35;;;;;;;;;;;;;;;21.01;57.52;100716.91;4230762;28;19924;-67
2023/09/20 03:13:37;;;;;;;;;;;;;;;21.00;57.48;100708.06;4230850;28;20393;-66
2023/09/20 03:15:43;;;;;;;;;;;;;;;21.00;57.42;100705.38;4230777;28;19963;-66
2023/09/20 03:17:47;;;;;;;;;;;;;;;21.00;57.64;100715.25;4230478;28;20305;-66
2023/09/20 03:19:53;;;;;;;;;;;;;;;20.99;57.35;100711.69;4230782;28;19924;-67
2023/09/20 03:21:55;;;;;;;;;;;;;;;20.99;57.62;100702.84;4229974;28;19924;-66
2023/09/20 03:23:56;;;;;;;;;;;;;;;20.98;57.63;100701.13;4230324;28;19923;-66
2023/09/20 03:25:58;;;;;;;;;;;;;;;20.97;57.74;100700.25;4230790;28;19923;-66
2023/09/20 03:27:59;;;;;;;;;;;;;;;20.98;57.39;100701.13;4230742;28;19923;-66
2023/09/20 03:30:02;;;;;;;;;;;;;;;20.97;57.58;100702.09;4230554;28;20320;-66
2023/09/20 03:32:04;;;;;;;;;;;;;;;20.96;57.76;100706.63;4230576;28;19931;-65
2023/09/20 03:34:06;;;;;;;;;;;;;;;20.96;57.60;100687.91;4230354;28;19981;-66
2023/09/20 03:36:15;;;;;;;;;;;;;;;20.96;57.71;100681.69;4230377;28;20364;-67
2023/09/20 03:38:17;;;;;;;;;;;;;;;20.95;57.48;100680.84;4230596;28;20285;-66
2023/09/20 03:40:21;;;;;;;;;;;;;;;20.95;57.78;100682.66;4230221;28;19935;-66
2023/09/20 03:42:24;;;;;;;;;;;;;;;20.94;57.74;100687.16;4230662;28;19988;-66
2023/09/20 03:44:25;;;;;;;;;;;;;;;20.94;57.45;100687.16;4230353;28;19923;-67
2023/09/20 03:46:27;;;;;;;;;;;;;;;20.94;57.59;100679.13;4230534;28;20407;-67
2023/09/20 03:48:29;;;;;;;;;;;;;;;20.94;57.73;100678.31;4230519;28;19928;-67
2023/09/20 03:50:30;;;;;;;;;;;;;;;20.93;57.83;100669.41;4230061;28;19971;-66
2023/09/20 03:52:32;;;;;;;;;;;;;;;20.93;57.63;100673.94;4246065;28;19927;-66
2023/09/20 03:54:33;;;;;;;;;;;;;;;20.92;57.65;100670.38;4230316;28;19954;-66
2023/09/20 03:56:35;;;;;;;;;;;;;;;20.93;57.77;100668.56;4230270;28;20396;-66
2023/09/20 03:58:37;;;;;;;;;;;;;;;20.92;57.91;100667.72;4230468;28;19927;-66
2023/09/20 04:00:39;;;;;;;;;;;;;;;20.90;57.79;100658.97;4230318;28;19923;-67
2023/09/20 04:02:41;;;;;;;;;;;;;;;20.91;57.96;100663.34;4230458;28;20015;-66
2023/09/20 04:04:43;;;;;;;;;;;;;;;20.91;57.71;100663.34;4229861;28;20375;-66
2023/09/20 04:06:45;;;;;;;;;;;;;;;20.88;58.02;100661.75;4230293;28;19923;-66
2023/09/20 04:08:47;;;;;;;;;;;;;;;20.89;57.95;100666.13;4230367;28;19924;-66
2023/09/20 04:10:49;;;;;;;;;;;;;;;20.90;58.01;100664.34;4230145;28;19934;-66
2023/09/20 04:12:51;;;;;;;;;;;;;;;20.90;57.68;100664.34;4212261;28;19954;-66
2023/09/20 04:14:53;;;;;;;;;;;;;;;20.88;57.96;100659.09;4230333;28;19928;-66
2023/09/20 04:16:54;;;;;;;;;;;;;;;20.87;57.73;100649.34;4230257;28;19931;-66
2023/09/20 04:18:56;;;;;;;;;;;;;;;20.88;57.79;100655.56;4230096;28;19930;-66
2023/09/20 04:20:57;;;;;;;;;;;;;;;20.87;57.86;100652.03;4229595;28;19930;-66
2023/09/20 04:22:59;;;;;;;;;;;;;;;20.86;57.91;100653.03;4230372;28;20270;-65
2023/09/20 04:25:01;;;;;;;;;;;;;;;20.87;58.06;100648.53;4230111;28;20373;-66
2023/09/20 04:27:03;;;;;;;;;;;;;;;20.86;58.10;100649.50;4230221;28;19934;-67
2023/09/20 04:29:04;;;;;;;;;;;;;;;20.86;57.72;100652.16;4213918;28;19924;-66
2023/09/20 04:31:06;;;;;;;;;;;;;;;20.85;58.14;100635.28;4233334;28;20343;-67
2023/09/20 04:33:10;;;;;;;;;;;;;;;20.84;58.15;100632.72;4233165;28;19985;-66
2023/09/20 04:35:12;;;;;;;;;;;;;;;20.84;58.02;100633.59;4232778;28;19924;-66
2023/09/20 04:37:13;;;;;;;;;;;;;;;20.84;58.23;100630.03;4233251;28;19923;-67
2023/09/20 04:39:15;;;;;;;;;;;;;;;20.85;58.15;100629.06;4233189;28;20018;-67
2023/09/20 04:41:17;;;;;;;;;;;;;;;20.82;58.02;100627.50;4233023;28;19924;-66
2023/09/20 04:43:18;;;;;;;;;;;;;;;20.83;58.07;100625.69;4232955;28;20278;-66
2023/09/20 04:45:20;;;;;;;;;;;;;;;20.83;58.07;100628.38;4232773;28;19930;-66
2023/09/20 04:47:22;;;;;;;;;;;;;;;20.81;58.00;100625.81;4232893;28;19923;-66
2023/09/20 04:49:23;;;;;;;;;;;;;;;20.81;57.98;100612.44;4232514;28;19923;-66
2023/09/20 04:51:25;;;;;;;;;;;;;;;20.81;58.19;100612.44;4232986;28;19930;-66
2023/09/20 04:53:26;;;;;;;;;;;;;;;20.81;58.17;100615.09;4233038;28;19924;-66
2023/09/20 04:55:29;;;;;;;;;;;;;;;20.81;57.92;100612.44;4232612;28;19993;-66
2023/09/20 04:57:31;;;;;;;;;;;;;;;20.81;57.95;100616.94;4248606;27;19923;-66
2023/09/20 04:59:33;;;;;;;;;;;;;;;20.81;58.26;100617.78;4232895;28;19928;-66
2023/09/20 05:01:34;;;;;;;;;;;;;;;20.81;58.14;100619.63;4232890;28;19928;-66
2023/09/20 05:03:36;;;;;;;;;;;;;;;20.80;58.17;100610.72;4232274;28;19950;-66
2023/09/20 05:05:38;;;;;;;;;;;;;;;20.79;58.07;100610.88;4232579;28;19932;-66
2023/09/20 05:07:40;;;;;;;;;;;;;;;20.79;58.34;100606.38;4232693;28;20003;-66
2023/09/20 05:09:42;;;;;;;;;;;;;;;20.80;58.28;100613.41;4232679;28;19924;-66
2023/09/20 05:11:45;;;;;;;;;;;;;;;20.78;58.28;100609.16;4232738;28;19928;-67
2023/09/20 05:13:46;;;;;;;;;;;;;;;20.79;58.16;100609.06;4232554;28;19924;-67
2023/09/20 05:15:50;;;;;;;;;;;;;;;20.78;58.53;100615.38;4232339;28;20350;-66
2023/09/20 05:17:52;;;;;;;;;;;;;;;20.77;58.37;100619.00;4232068;28;19928;-66
2023/09/20 05:19:53;;;;;;;;;;;;;;;20.78;58.23;100617.19;4232393;28;19928;-66
2023/09/20 05:21:55;;;;;;;;;;;;;;;20.77;58.35;100620.81;4232079;28;19969;-68
2023/09/20 05:23:57;;;;;;;;;;;;;;;20.77;58.40;100621.69;4232583;28;20312;-66
2023/09/20 05:25:58;;;;;;;;;;;;;;;20.77;58.47;100618.16;4232356;28;19924;-67
2023/09/20 05:28:01;;;;;;;;;;;;;;;20.76;58.24;100609.28;4232490;28;19930;-66
2023/09/20 05:30:03;;;;;;;;;;;;;;;20.76;58.41;100619.16;4232437;28;20398;-67
2023/09/20 05:32:05;;;;;;;;;;;;;;;20.76;58.53;100616.47;4231763;28;20304;-66
2023/09/20 05:34:06;;;;;;;;;;;;;;;20.75;58.37;100612.94;4214188;28;19932;-66
2023/09/20 05:36:08;;;;;;;;;;;;;;;20.74;58.23;100614.78;4232382;28;20372;-67
2023/09/20 05:38:13;;;;;;;;;;;;;;;20.74;58.43;100620.13;4232221;28;19924;-66
2023/09/20 05:40:17;;;;;;;;;;;;;;;20.74;58.63;100625.47;4232192;28;19923;-66
2023/09/20 05:42:19;;;;;;;;;;;;;;;20.73;58.38;100618.41;4232074;28;20428;-66
2023/09/20 05:44:21;;;;;;;;;;;;;;;20.74;58.69;100619.25;4232089;28;19931;-66
2023/09/20 05:46:24;;;;;;;;;;;;;;;20.73;58.38;100618.41;4247229;27;19924;-66
2023/09/20 05:48:26;;;;;;;;;;;;;;;20.72;58.62;100608.69;4232093;28;19969;-67
2023/09/20 05:50:34;;;;;;;;;;;;;;;20.72;58.40;100610.53;4232030;28;19996;-67
2023/09/20 05:52:40;;;;;;;;;;;;;;;20.72;58.65;100614.03;4232082;28;19928;-67
2023/09/20 05:54:42;;;;;;;;;;;;;;;20.72;58.21;100605.19;4230954;28;20054;-67
2023/09/20 05:56:44;;;;;;;;;;;;;;;20.72;58.35;100605.19;4231678;28;20026;-67
2023/09/20 05:58:46;;;;;;;;;;;;;;;20.72;58.64;100597.16;4231756;28;20015;-68
2023/09/20 06:00:51;;;;;;;;;;;;;;;20.72;58.24;100594.50;4231324;28;19923;-67
2023/09/20 06:02:53;;;;;;;;;;;;;;;20.71;58.61;100595.44;4231940;28;19931;-68
2023/09/20 06:04:55;;;;;;;;;;;;;;;20.71;58.51;100582.06;4231864;28;19924;-67
2023/09/20 06:06:57;;;;;;;;;;;;;;;20.71;58.29;100582.06;4231799;28;19943;-67
2023/09/20 06:08:58;;;;;;;;;;;;;;;20.71;58.64;100579.38;4231940;28;19945;-67
2023/09/20 06:11:04;;;;;;;;;;;;;;;20.70;58.59;100583.88;4231747;28;19924;-68
2023/09/20 06:13:08;;;;;;;;;;;;;;;20.70;58.58;100575.84;4231463;28;20019;-67
2023/09/20 06:15:13;;;;;;;;;;;;;;;20.69;58.62;100579.53;4231426;28;19985;-67
2023/09/20 06:17:14;;;;;;;;;;;;;;;20.70;58.56;100580.34;4231573;28;20371;-67
2023/09/20 06:19:16;;;;;;;;;;;;;;;20.69;58.65;100576.84;4231676;28;19993;-67
2023/09/20 06:21:19;;;;;;;;;;;;;;;20.69;58.46;100579.53;4231180;28;20002;-68
2023/09/20 06:23:20;;;;;;;;;;;;;;;20.69;58.59;100586.66;4231437;28;19977;-67
2023/09/20 06:25:22;;;;;;;;;;;;;;;20.69;58.72;100579.53;4231252;28;19923;-67
2023/09/20 06:27:30;;;;;;;;;;;;;;;20.69;58.32;100581.31;4231350;28;19927;-67
2023/09/20 06:29:33;;;;;;;;;;;;;;;20.69;58.45;100589.34;4230984;28;20026;-68
2023/09/20 06:31:37;;;;;;;;;;;;;;;20.69;58.33;100597.38;4231701;28;20311;-66
2023/09/20 06:33:39;;;;;;;;;;;;;;;20.70;58.60;100591.88;4231341;28;20331;-68
2023/09/20 06:35:41;;;;;;;;;;;;;;;20.69;58.55;100595.56;4231286;28;19924;-67
2023/09/20 06:37:45;;;;;;;;;;;;;;;20.69;58.71;100592.00;4231268;28;20369;-67
2023/09/20 06:39:47;;;;;;;;;;;;;;;20.68;58.73;100588.50;4231360;28;19955;-67
2023/09/20 06:41:49;;;;;;;;;;;;;;;20.69;58.74;100589.34;4246879;27;20316;-67
2023/09/20 06:43:51;;;;;;;;;;;;;;;20.69;58.78;100594.69;4231210;28;19932;-67
2023/09/20 06:45:53;;;;;;;;;;;;;;;20.68;58.68;100585.84;4230754;28;20304;-67
2023/09/20 06:47:57;;;;;;;;;;;;;;;20.69;58.43;100592.00;4231193;28;19966;-67
2023/09/20 06:50:02;;;;;;;;;;;;;;;20.69;58.43;100598.22;4231108;28;19923;-66
2023/09/20 06:52:04;;;;;;;;;;;;;;;20.69;58.39;100597.38;4230473;28;20278;-67
2023/09/20 06:54:08;;;;;;;;;;;;;;;20.69;58.53;100600.03;4231138;28;20454;-67
2023/09/20 06:56:10;;;;;;;;;;;;;;;20.70;58.46;100593.72;4246922;27;19923;-67
2023/09/20 06:58:12;;;;;;;;;;;;;;;20.69;58.46;100600.91;4230969;28;19928;-66
2023/09/20 07:00:25;;;;;;;;;;;;;;;20.70;58.50;100596.41;4230812;28;19984;-67
2023/09/20 07:02:29;;;;;;;;;;;;;;;20.70;58.63;100596.41;4230975;28;20281;-67
2023/09/20 07:04:31;;;;;;;;;;;;;;;20.69;58.48;100592.88;4230923;28;19927;-67
2023/09/20 07:06:32;;;;;;;;;;;;;;;20.68;58.75;100591.19;4230797;28;19923;-67
2023/09/20 07:08:35;;;;;;;;;;;;;;;20.69;58.62;100592.88;4231070;28;19981;-67
2023/09/20 07:10:41;;;;;;;;;;;;;;;20.70;58.71;100585.69;4230731;28;19969;-68
2023/09/20 07:12:43;;;;;;;;;;;;;;;20.69;58.80;100592.00;4230859;28;19967;-67
2023/09/20 07:14:45;;;;;;;;;;;;;;;20.67;59.06;100597.50;4230499;28;20363;-67
2023/09/20 07:16:48;;;;;;;;;;;;;;;20.69;58.87;100602.72;4230704;28;19930;-67
2023/09/20 07:18:51;;;;;;;;;;;;;;;20.68;58.87;100591.19;4230754;28;19924;-67
2023/09/20 07:20:54;;;;;;;;;;;;;;;20.68;58.49;100595.66;4230428;28;19927;-67
2023/09/20 07:22:58;;;;;;;;;;;;;;;20.68;58.56;100593.84;4230628;28;19924;-67
2023/09/20 07:25:04;;;;;;;;;;;;;;;20.68;58.92;100593.84;4230746;28;19930;-67
2023/09/20 07:27:06;;;;;;;;;;;;;;;20.68;58.54;100593.84;4230806;28;19924;-67
2023/09/20 07:29:09;;;;;;;;;;;;;;;20.69;58.53;100597.38;4212282;28;20420;-67
2023/09/20 07:31:11;;;;;;;;;;;;;;;20.68;58.68;100591.19;4230761;28;19959;-67
2023/09/20 07:33:23;;;;;;;;;;;;;;;20.68;58.75;100593.00;4230424;28;19924;-67
2023/09/20 07:35:26;;;;;;;;;;;;;;;20.67;58.68;100599.28;4230608;28;20006;-67
2023/09/20 07:37:28;;;;;;;;;;;;;;;20.67;58.58;100599.28;4230751;28;19928;-68
2023/09/20 07:39:30;;;;;;;;;;;;;;;20.67;58.53;100597.50;4230514;28;19969;-67
2023/09/20 07:41:32;;;;;;;;;;;;;;;20.66;58.50;100595.78;4230562;28;19924;-67
2023/09/20 07:43:34;;;;;;;;;;;;;;;20.66;58.52;100593.13;4230138;28;19923;-66
2023/09/20 07:45:39;;;;;;;;;;;;;;;20.66;58.51;100586.94;4230510;28;19946;-67
2023/09/20 07:47:43;;;;;;;;;;;;;;;20.66;58.68;100586.94;4230662;28;20369;-67
2023/09/20 07:49:45;;;;;;;;;;;;;;;20.65;58.48;100580.72;4230514;28;20389;-67
2023/09/20 07:51:48;;;;;;;;;;;;;;;20.65;58.65;100578.06;4246128;28;20337;-67
2023/09/20 07:53:53;;;;;;;;;;;;;;;20.65;58.50;100578.06;4230387;28;19951;-68
2023/09/20 07:56:03;;;;;;;;;;;;;;;20.67;58.66;100577.91;4230423;28;19923;-67
2023/09/20 07:58:05;;;;;;;;;;;;;;;20.66;58.50;100585.09;4229893;28;19934;-67
2023/09/20 08:00:10;;;;;;;;;;;;;;;20.66;58.87;100579.75;4230474;28;19955;-67
2023/09/20 08:02:17;;;;;;;;;;;;;;;20.66;58.61;100582.44;4230331;28;20406;-67
2023/09/20 08:04:20;;;;;;;;;;;;;;;20.65;59.09;100583.41;4230742;28;19963;-67
2023/09/20 08:06:23;;;;;;;;;;;;;;;20.66;59.24;100577.09;4215014;28;19924;-69
2023/09/20 08:08:25;;;;;;;;;;;;;;;20.76;59.72;100585.25;4233063;28;19931;-72
2023/09/20 08:10:27;;;;;;;;;;;;;;;20.83;59.36;100578.41;4227575;28;19924;-67
2023/09/20 08:12:29;;;;;;;;;;;;;;;20.87;59.24;100581.69;4232021;28;19974;-68
2023/09/20 08:14:30;;;;;;;;;;;;;;;20.92;58.82;100581.31;4232389;28;19972;-71
2023/09/20 08:16:33;;;;;;;;;;;;;;;20.99;59.08;100579.84;4232829;28;20339;-67
2023/09/20 08:20:59;;;;;;;;;;;;;;;21.08;58.47;100576.41;4229429;28;20422;-67
2023/09/20 09:00:30;;;;;;;;;;;;;;;21.54;57.03;100577.94;4234290;28;19923;-75
2023/09/20 09:02:33;;;;;;;;;;;;;;;21.50;57.06;100579.16;4232542;28;20353;-73
2023/09/20 09:04:37;;;;;;;;;;;;;;;21.47;57.13;100582.09;4232419;28;19927;-72
2023/09/20 09:06:39;;;;;;;;;;;;;;;21.46;57.42;100584.88;4232412;28;19923;-70
2023/09/20 09:08:41;;;;;;;;;;;;;;;21.44;57.29;100570.81;4232538;28;20017;-72
2023/09/20 09:10:43;;;;;;;;;;;;;;;21.44;57.23;100581.50;4233088;28;19976;-73
2023/09/20 09:12:44;;;;;;;;;;;;;;;21.44;57.21;100570.81;4233395;28;19923;-75
2023/09/20 09:14:49;;;;;;;;;;;;;;;21.43;57.24;100567.28;4232349;28;19939;-77
2023/09/20 09:16:59;;;;;;;;;;;;;;;21.41;57.56;100561.22;4232523;28;19930;-73
2023/09/20 09:19:00;;;;;;;;;;;;;;;21.43;57.33;100553.06;4229272;28;19924;-69
2023/09/20 09:21:04;;;;;;;;;;;;;;;21.42;57.24;100559.38;4231625;28;19928;-74
2023/09/20 09:23:05;;;;;;;;;;;;;;;21.43;57.34;100545.03;4232221;28;19968;-75
2023/09/20 09:25:11;;;;;;;;;;;;;;;21.43;57.72;100551.22;4231649;28;19931;-70
2023/09/20 09:27:14;;;;;;;;;;;;;;;21.44;57.47;100533.34;4231867;28;20023;-72
2023/09/20 09:29:18;;;;;;;;;;;;;;;21.46;57.80;100532.25;4232010;28;20223;-74
2023/09/20 09:31:20;;;;;;;;;;;;;;;21.46;57.57;100534.91;4231817;28;19966;-73
2023/09/20 09:33:22;;;;;;;;;;;;;;;21.47;57.22;100527.72;4231900;28;20389;-72
2023/09/20 09:35:24;;;;;;;;;;;;;;;21.42;57.25;100517.41;4231686;28;19924;-72
2023/09/20 09:37:46;;;;;;;;;;;;;;;21.40;57.37;100508.69;4231631;28;19982;-72
2023/09/20 09:40:00;;;;;;;;;;;;;;;21.37;57.72;100509.81;4213451;28;20166;-72
2023/09/20 09:42:02;;;;;;;;;;;;;;;21.36;57.52;100508.09;4231399;28;19931;-70
2023/09/20 09:44:04;;;;;;;;;;;;;;;21.36;57.74;100508.09;4231638;28;19924;-71
2023/09/20 09:46:09;;;;;;;;;;;;;;;21.32;57.58;100489.75;4213492;28;20465;-72
2023/09/20 09:48:14;;;;;;;;;;;;;;;21.39;57.52;100498.97;4231570;28;19924;-69
2023/09/20 09:50:16;;;;;;;;;;;;;;;21.41;57.46;100496.16;4231143;28;19931;-72
2023/09/20 09:52:23;;;;;;;;;;;;;;;21.44;57.79;100493.22;4231300;28;20376;-70
2023/09/20 09:54:24;;;;;;;;;;;;;;;21.45;57.72;100494.94;4231158;28;19955;-70
2023/09/20 09:56:27;;;;;;;;;;;;;;;21.48;57.92;100497.31;4213172;28;19977;-70
2023/09/20 09:58:28;;;;;;;;;;;;;;;21.48;57.46;100486.63;4231343;28;19928;-71
2023/09/20 10:00:32;;;;;;;;;;;;;;;21.47;57.24;100493.81;4231291;28;19932;-72
2023/09/20 10:02:36;;;;;;;;;;;;;;;21.45;57.04;100476.19;4230886;28;20007;-72
2023/09/20 10:04:39;;;;;;;;;;;;;;;21.45;57.45;100473.53;4213207;28;19924;-72
2023/09/20 10:06:46;;;;;;;;;;;;;;;21.46;57.50;100472.50;4230776;28;19928;-73
2023/09/20 10:08:51;;;;;;;;;;;;;;;21.45;57.15;100477.03;4230546;28;20359;-74
2023/09/20 10:10:55;;;;;;;;;;;;;;;21.45;57.20;100477.03;4228525;28;20010;-74
2023/09/20 10:12:57;;;;;;;;;;;;;;;21.46;56.88;100477.88;4231019;28;19932;-72
2023/09/20 10:15:01;;;;;;;;;;;;;;;21.47;56.89;100472.41;4230657;28;19954;-73
2023/09/20 10:17:06;;;;;;;;;;;;;;;21.48;57.12;100474.09;4230739;28;20381;-74
2023/09/20 10:19:08;;;;;;;;;;;;;;;21.49;57.01;100470.44;4237297;27;19923;-74
2023/09/20 10:21:14;;;;;;;;;;;;;;;21.50;56.64;100466.78;4247645;27;19935;-74
2023/09/20 10:23:16;;;;;;;;;;;;;;;21.50;56.42;100460.59;4247874;27;19946;-80
2023/09/20 10:25:44;;;;;;;;;;;;;;;21.50;56.31;100450.72;4249069;27;19930;-79
2023/09/20 10:27:52;;;;;;;;;;;;;;;21.48;55.81;100452.69;4211861;28;20309;-78
2023/09/20 10:30:00;;;;;;;;;;;;;;;21.49;56.25;100464.25;4229286;28;19931;-76
2023/09/20 10:32:08;;;;;;;;;;;;;;;21.49;55.86;100442.84;4231065;28;20288;-75
2023/09/20 10:34:10;;;;;;;;;;;;;;;21.50;55.74;100437.34;4231037;28;19923;-76
2023/09/20 10:36:14;;;;;;;;;;;;;;;21.53;55.80;100439.75;4230817;28;19928;-76
2023/09/20 10:38:23;;;;;;;;;;;;;;;21.53;55.91;100439.75;4231134;28;19924;-76
2023/09/20 10:40:44;;;;;;;;;;;;;;;21.55;55.77;100444.97;4230252;28;19930;-74
2023/09/20 10:42:51;;;;;;;;;;;;;;;21.55;55.63;100450.31;4226270;28;20015;-80
2023/09/20 10:44:58;;;;;;;;;;;;;;;21.55;55.43;100439.63;4232965;28;19949;-79
2023/09/20 10:47:17;;;;;;;;;;;;;;;21.57;55.32;100429.69;4213433;28;20400;-71
2023/09/20 10:49:40;;;;;;;;;;;;;;;21.58;55.01;100427.84;4230580;28;19946;-73
2023/09/20 10:51:48;;;;;;;;;;;;;;;21.62;54.57;100424.75;4230064;28;19928;-72
2023/09/20 10:53:52;;;;;;;;;;;;;;;21.64;54.78;100422.81;4230421;28;20019;-70
2023/09/20 10:55:54;;;;;;;;;;;;;;;21.65;54.14;100419.16;4230091;28;20023;-70
2023/09/20 10:57:56;;;;;;;;;;;;;;;21.68;53.90;100418.88;4230330;28;20274;-72
2023/09/20 10:59:58;;;;;;;;;;;;;;;21.69;53.92;100415.22;4230770;28;19930;-73
2023/09/20 11:02:02;;;;;;;;;;;;;;;21.73;53.28;100415.78;4230515;28;19931;-74
2023/09/20 11:04:05;;;;;;;;;;;;;;;21.76;53.37;100420.03;4230445;28;20018;-75
2023/09/20 11:06:07;;;;;;;;;;;;;;;21.81;52.74;100415.97;4230642;28;19932;-77
2023/09/20 11:08:13;;;;;;;;;;;;;;;21.87;52.84;100411.88;4230746;28;20030;-75
2023/09/20 11:10:19;;;;;;;;;;;;;;;21.88;52.64;100402.03;4230798;28;19977;-75
2023/09/20 11:12:21;;;;;;;;;;;;;;;21.90;52.63;100405.44;4230828;28;20014;-74